createdAt,value
2023-03-06T00:00:53.904Z,-0.70
2023-03-06T00:03:23.244Z,-0.65
2023-03-06T00:05:51.827Z,-0.63
2023-03-06T00:08:20.052Z,-0.62
2023-03-06T00:10:48.221Z,-0.58
2023-03-06T00:13:19.137Z,-0.55
2023-03-06T00:15:48.715Z,-0.52
2023-03-06T00:18:17.141Z,-0.51
2023-03-06T00:20:45.517Z,-0.53
2023-03-06T00:23:13.743Z,-0.53
2023-03-06T00:25:45.956Z,-0.54
2023-03-06T00:28:15.958Z,-0.54
2023-03-06T00:30:46.246Z,-0.56
2023-03-06T00:33:14.466Z,-0.56
2023-03-06T00:35:42.757Z,-0.54
2023-03-06T00:38:13.534Z,-0.54
2023-03-06T00:40:41.748Z,-0.53
2023-03-06T00:43:10.327Z,-0.50
2023-03-06T00:45:38.657Z,-0.49
2023-03-06T00:48:06.980Z,-0.47
2023-03-06T00:50:35.768Z,-0.45
2023-03-06T00:53:03.951Z,-0.41
2023-03-06T00:55:33.709Z,-0.36
2023-03-06T00:58:02.133Z,-0.36
2023-03-06T01:00:30.713Z,-0.35
2023-03-06T01:02:58.884Z,-0.32
2023-03-06T01:05:27.307Z,-0.33
2023-03-06T01:07:55.732Z,-0.31
2023-03-06T01:10:24.010Z,-0.29
2023-03-06T01:12:52.286Z,-0.28
2023-03-06T01:15:21.376Z,-0.26
2023-03-06T01:17:53.849Z,-0.23
2023-03-06T01:20:22.337Z,-0.20
2023-03-06T01:22:51.218Z,-0.19
2023-03-06T01:25:19.491Z,-0.19
2023-03-06T01:27:47.778Z,-0.18
2023-03-06T01:30:16.447Z,-0.18
2023-03-06T01:32:44.724Z,-0.18
2023-03-06T01:35:13.306Z,-0.20
2023-03-06T01:37:41.590Z,-0.23
2023-03-06T01:40:11.798Z,-0.23
2023-03-06T01:42:40.594Z,-0.22
2023-03-06T01:45:35.005Z,-0.23
2023-03-06T01:48:03.257Z,-0.25
2023-03-06T01:50:31.732Z,-0.24
2023-03-06T01:53:01.135Z,-0.21
2023-03-06T01:55:33.397Z,-0.17
2023-03-06T01:58:09.133Z,-0.16
2023-03-06T02:00:38.254Z,-0.16
2023-03-06T02:03:11.808Z,-0.15
2023-03-06T02:05:42.167Z,-0.14
2023-03-06T02:08:17.076Z,-0.13
2023-03-06T02:11:14.915Z,-0.11
2023-03-06T02:13:44.471Z,-0.12
2023-03-06T02:16:14.998Z,-0.14
2023-03-06T02:18:44.817Z,-0.17
2023-03-06T02:21:20.458Z,-0.19
2023-03-06T02:24:00.609Z,-0.23
2023-03-06T02:26:29.794Z,-0.25
2023-03-06T02:28:59.410Z,-0.26
2023-03-06T02:31:31.632Z,-0.25
2023-03-06T02:34:04.258Z,-0.27
2023-03-06T02:36:35.926Z,-0.30
2023-03-06T02:39:04.392Z,-0.32
2023-03-06T02:41:32.895Z,-0.33
2023-03-06T02:44:01.148Z,-0.31
2023-03-06T02:46:30.724Z,-0.31
2023-03-06T02:48:59.023Z,-0.32
2023-03-06T02:51:27.297Z,-0.29
2023-03-06T02:53:55.465Z,-0.29
2023-03-06T02:56:23.640Z,-0.28
2023-03-06T02:58:52.323Z,-0.28
2023-03-06T03:01:21.425Z,-0.31
2023-03-06T03:03:49.800Z,-0.33
2023-03-06T03:06:18.169Z,-0.35
2023-03-06T03:08:46.852Z,-0.34
2023-03-06T03:11:15.433Z,-0.36
2023-03-06T03:13:45.141Z,-0.36
2023-03-06T03:16:18.096Z,-0.36
2023-03-06T03:18:48.237Z,-0.38
2023-03-06T03:21:18.365Z,-0.37
2023-03-06T03:23:48.401Z,-0.37
2023-03-06T03:26:20.214Z,-0.36
2023-03-06T03:28:59.676Z,-0.36
2023-03-06T03:31:28.510Z,-0.36
2023-03-06T03:33:57.045Z,-0.34
2023-03-06T03:36:26.241Z,-0.34
2023-03-06T03:38:55.748Z,-0.32
2023-03-06T03:41:24.441Z,-0.32
2023-03-06T03:43:52.815Z,-0.31
2023-03-06T03:46:21.843Z,-0.31
2023-03-06T03:48:51.101Z,-0.34
2023-03-06T03:51:19.582Z,-0.35
2023-03-06T03:53:50.718Z,-0.38
2023-03-06T03:56:21.043Z,-0.40
2023-03-06T03:59:09.385Z,-0.43
2023-03-06T04:01:43.127Z,-0.42
2023-03-06T04:04:11.574Z,-0.41
2023-03-06T04:06:40.248Z,-0.38
2023-03-06T04:09:08.829Z,-0.36
2023-03-06T04:11:37.720Z,-0.34
2023-03-06T04:14:08.457Z,-0.31
2023-03-06T04:16:37.236Z,-0.29
2023-03-06T04:19:05.623Z,-0.26
2023-03-06T04:21:34.400Z,-0.23
2023-03-06T04:24:02.573Z,-0.19
2023-03-06T04:26:31.269Z,-0.18
2023-03-06T04:29:00.149Z,-0.15
2023-03-06T04:31:28.640Z,-0.13
2023-03-06T04:33:57.273Z,-0.13
2023-03-06T04:36:29.381Z,-0.13
2023-03-06T04:39:00.975Z,-0.13
2023-03-06T04:41:29.611Z,-0.13
2023-03-06T04:43:57.789Z,-0.12
2023-03-06T04:46:25.956Z,-0.11
2023-03-06T04:48:54.133Z,-0.10
2023-03-06T04:51:22.509Z,-0.10
2023-03-06T04:53:50.679Z,-0.10
2023-03-06T04:56:18.851Z,-0.08
2023-03-06T04:58:47.027Z,-0.07
2023-03-06T05:01:15.210Z,-0.05
2023-03-06T05:03:43.377Z,0.00
2023-03-06T05:06:11.543Z,0.06
2023-03-06T05:08:40.230Z,0.13
2023-03-06T05:11:08.408Z,0.20
2023-03-06T05:13:36.872Z,0.28
2023-03-06T05:16:06.482Z,0.37
2023-03-06T05:18:35.379Z,0.44
2023-03-06T05:21:04.880Z,0.46
2023-03-06T05:23:35.706Z,0.49
2023-03-06T05:26:09.394Z,0.53
2023-03-06T05:28:38.095Z,0.59
2023-03-06T05:31:07.019Z,0.62
2023-03-06T05:33:36.279Z,0.64
2023-03-06T05:36:05.166Z,0.68
2023-03-06T05:38:33.337Z,0.70
2023-03-06T05:41:01.513Z,0.72
2023-03-06T05:43:29.900Z,0.75
2023-03-06T05:46:03.023Z,0.79
2023-03-06T05:48:31.882Z,0.82
2023-03-06T05:51:01.302Z,0.87
2023-03-06T05:53:30.469Z,0.92
2023-03-06T05:56:01.011Z,0.94
2023-03-06T05:58:29.778Z,0.95
2023-03-06T06:00:58.168Z,0.96
2023-03-06T06:03:26.645Z,0.96
2023-03-06T06:05:54.826Z,0.97
2023-03-06T06:08:22.980Z,1.00
2023-03-06T06:10:53.295Z,1.02
2023-03-06T06:13:21.684Z,1.06
2023-03-06T06:15:49.884Z,1.08
2023-03-06T06:18:18.252Z,1.11
2023-03-06T06:20:46.411Z,1.13
2023-03-06T06:23:14.569Z,1.15
2023-03-06T06:25:42.741Z,1.14
2023-03-06T06:28:12.549Z,1.13
2023-03-06T06:30:40.726Z,1.12
2023-03-06T06:33:09.209Z,1.16
2023-03-06T06:35:37.618Z,1.18
2023-03-06T06:38:05.890Z,1.20
2023-03-06T06:40:34.050Z,1.22
2023-03-06T06:43:02.253Z,1.25
2023-03-06T06:45:30.373Z,1.28
2023-03-06T06:47:58.783Z,1.31
2023-03-06T06:50:27.236Z,1.37
2023-03-06T06:52:55.608Z,1.42
2023-03-06T06:55:23.785Z,1.45
2023-03-06T06:57:51.955Z,1.45
2023-03-06T07:00:20.843Z,1.47
2023-03-06T07:02:49.531Z,1.50
2023-03-06T07:05:21.727Z,1.54
2023-03-06T07:07:51.498Z,1.57
2023-03-06T07:10:21.096Z,1.61
2023-03-06T07:12:49.483Z,1.65
2023-03-06T07:15:18.802Z,1.63
2023-03-06T07:17:49.815Z,1.55
2023-03-06T07:20:20.147Z,1.53
2023-03-06T07:22:51.636Z,1.52
2023-03-06T07:25:20.908Z,1.53
2023-03-06T07:27:53.918Z,1.55
2023-03-06T07:30:23.887Z,1.56
2023-03-06T07:32:54.134Z,1.56
2023-03-06T07:35:23.020Z,1.59
2023-03-06T07:37:52.097Z,1.60
2023-03-06T07:40:20.908Z,1.61
2023-03-06T07:42:49.272Z,1.61
2023-03-06T07:45:20.255Z,1.65
2023-03-06T07:47:52.779Z,1.66
2023-03-06T07:50:21.666Z,1.66
2023-03-06T07:52:50.670Z,1.69
2023-03-06T07:55:18.836Z,1.69
2023-03-06T07:57:50.698Z,1.72
2023-03-06T08:00:19.680Z,1.74
2023-03-06T08:02:49.658Z,1.79
2023-03-06T08:05:18.176Z,1.83
2023-03-06T08:07:46.453Z,1.90
2023-03-06T08:10:16.159Z,1.97
2023-03-06T08:12:44.566Z,2.03
2023-03-06T08:15:13.218Z,2.08
2023-03-06T08:17:41.476Z,2.11
2023-03-06T08:20:12.571Z,2.16
2023-03-06T08:22:41.133Z,2.21
2023-03-06T08:25:10.381Z,2.28
2023-03-06T08:27:38.591Z,2.31
2023-03-06T08:30:08.267Z,2.34
2023-03-06T08:32:37.348Z,2.33
2023-03-06T08:35:06.281Z,2.34
2023-03-06T08:37:34.470Z,2.34
2023-03-06T08:40:04.838Z,2.36
2023-03-06T08:42:33.463Z,2.39
2023-03-06T08:45:01.624Z,2.48
2023-03-06T08:47:29.794Z,2.58
2023-03-06T08:50:00.573Z,2.66
2023-03-06T08:52:29.126Z,2.72
2023-03-06T08:54:58.222Z,2.80
2023-03-06T08:57:26.598Z,2.90
2023-03-06T08:59:55.060Z,2.96
2023-03-06T09:02:23.197Z,3.06
2023-03-06T09:04:51.745Z,3.18
2023-03-06T09:07:19.890Z,3.30
2023-03-06T09:09:48.065Z,3.43
2023-03-06T09:12:16.537Z,3.53
2023-03-06T09:14:44.720Z,3.65
2023-03-06T09:17:13.085Z,3.72
2023-03-06T09:19:41.259Z,3.78
2023-03-06T09:22:09.427Z,3.87
2023-03-06T09:24:37.603Z,3.98
2023-03-06T09:27:05.775Z,4.05
2023-03-06T09:29:34.053Z,4.11
2023-03-06T09:32:02.287Z,4.11
2023-03-06T09:34:30.601Z,4.18
2023-03-06T09:36:59.078Z,4.32
2023-03-06T09:39:27.484Z,4.41
2023-03-06T09:41:57.555Z,4.49
2023-03-06T09:44:28.305Z,4.68
2023-03-06T09:47:08.563Z,4.84
2023-03-06T09:49:36.733Z,4.84
2023-03-06T09:52:23.334Z,4.80
2023-03-06T09:55:11.654Z,4.87
2023-03-06T09:58:20.912Z,4.86
2023-03-06T10:01:04.232Z,4.90
2023-03-06T10:03:39.696Z,5.07
2023-03-06T10:06:34.178Z,5.21
2023-03-06T10:09:02.249Z,5.28
2023-03-06T10:11:39.608Z,5.29
2023-03-06T10:14:16.808Z,5.30
2023-03-06T10:16:44.986Z,5.24
2023-03-06T10:19:20.738Z,5.17
2023-03-06T10:21:54.746Z,5.22
2023-03-06T10:24:29.061Z,5.30
2023-03-06T10:27:29.495Z,5.44
2023-03-06T10:30:16.202Z,5.72
2023-03-06T10:32:55.400Z,5.97
2023-03-06T10:35:53.525Z,6.05
2023-03-06T10:38:32.019Z,6.09
2023-03-06T10:41:07.032Z,6.06
2023-03-06T10:43:36.704Z,6.00
2023-03-06T10:46:07.019Z,5.99
2023-03-06T10:48:36.493Z,6.05
2023-03-06T10:51:23.709Z,6.07
2023-03-06T10:54:00.894Z,5.98
2023-03-06T10:56:35.507Z,6.03
2023-03-06T10:59:17.413Z,6.10
2023-03-06T11:01:50.557Z,6.17
2023-03-06T11:04:27.825Z,6.23
2023-03-06T11:07:06.399Z,6.37
2023-03-06T11:09:35.690Z,6.33
2023-03-06T11:12:20.971Z,6.17
2023-03-06T11:15:10.237Z,6.14
2023-03-06T11:18:00.319Z,6.26
2023-03-06T11:20:54.505Z,6.23
2023-03-06T11:23:42.494Z,6.25
2023-03-06T11:26:16.579Z,6.36
2023-03-06T11:28:54.880Z,6.35
2023-03-06T11:31:25.916Z,6.32
2023-03-06T11:34:00.629Z,6.24
2023-03-06T11:36:41.586Z,6.13
2023-03-06T11:39:41.705Z,5.96
2023-03-06T11:42:23.908Z,5.79
2023-03-06T11:45:13.994Z,5.79
2023-03-06T11:48:13.198Z,5.82
2023-03-06T11:50:54.164Z,5.94
2023-03-06T11:53:49.064Z,5.99
2023-03-06T11:56:20.316Z,6.02
2023-03-06T11:59:07.945Z,5.96
2023-03-06T12:02:11.604Z,5.90
2023-03-06T12:04:48.215Z,5.79
2023-03-06T12:07:58.269Z,5.70
2023-03-06T12:10:42.311Z,5.64
2023-03-06T12:13:19.596Z,5.62
2023-03-06T12:16:24.621Z,5.57
2023-03-06T12:19:11.440Z,5.50
2023-03-06T12:21:51.901Z,5.47
2023-03-06T12:24:32.987Z,5.61
2023-03-06T12:27:04.325Z,5.70
2023-03-06T12:29:42.120Z,5.75
2023-03-06T12:32:21.592Z,5.82
2023-03-06T12:34:49.830Z,5.87
2023-03-06T12:37:34.391Z,5.95
2023-03-06T12:40:07.065Z,5.98
2023-03-06T12:43:02.272Z,5.92
2023-03-06T12:45:32.907Z,5.83
2023-03-06T12:48:02.203Z,5.70
2023-03-06T12:50:37.250Z,5.59
2023-03-06T12:53:14.520Z,5.31
2023-03-06T12:55:45.392Z,4.95
2023-03-06T12:58:29.211Z,4.79
2023-03-06T13:01:04.295Z,4.78
2023-03-06T13:03:48.067Z,4.75
2023-03-06T13:06:39.234Z,4.69
2023-03-06T13:09:32.131Z,4.66
2023-03-06T13:12:13.720Z,4.66
2023-03-06T13:14:48.690Z,4.63
2023-03-06T13:17:32.801Z,4.57
2023-03-06T13:20:16.536Z,4.50
2023-03-06T13:22:47.181Z,4.37
2023-03-06T13:25:21.476Z,4.23
2023-03-06T13:27:52.521Z,4.21
2023-03-06T13:30:39.079Z,4.28
2023-03-06T13:33:22.758Z,4.49
2023-03-06T13:36:19.821Z,4.76
2023-03-06T13:38:51.625Z,5.06
2023-03-06T13:41:23.112Z,5.34
2023-03-06T13:43:56.079Z,5.48
2023-03-06T13:46:28.241Z,5.56
2023-03-06T13:49:21.109Z,5.62
2023-03-06T13:52:23.280Z,5.56
2023-03-06T13:54:54.114Z,5.47
2023-03-06T13:57:42.054Z,5.45
2023-03-06T14:00:29.061Z,5.41
2023-03-06T14:03:35.839Z,5.39
2023-03-06T14:06:36.192Z,5.41
2023-03-06T14:09:06.681Z,5.42
2023-03-06T14:11:35.782Z,5.44
2023-03-06T14:14:04.064Z,5.46
2023-03-06T14:16:49.224Z,5.52
2023-03-06T14:19:19.406Z,5.57
2023-03-06T14:21:56.340Z,5.61
2023-03-06T14:24:38.728Z,5.65
2023-03-06T14:27:07.412Z,5.58
2023-03-06T14:29:35.488Z,5.49
2023-03-06T14:32:06.173Z,5.44
2023-03-06T14:34:40.035Z,5.44
2023-03-06T14:37:20.383Z,5.35
2023-03-06T14:39:49.374Z,5.24
2023-03-06T14:42:19.504Z,5.11
2023-03-06T14:44:49.188Z,5.01
2023-03-06T14:47:28.767Z,4.98
2023-03-06T14:50:25.587Z,4.91
2023-03-06T14:53:21.504Z,4.88
2023-03-06T14:56:01.531Z,4.86
2023-03-06T14:58:40.456Z,4.85
2023-03-06T15:01:10.190Z,4.84
2023-03-06T15:03:50.551Z,4.81
2023-03-06T15:06:22.205Z,4.77
2023-03-06T15:09:05.885Z,4.71
2023-03-06T15:11:51.934Z,4.62
2023-03-06T15:14:41.196Z,4.54
2023-03-06T15:17:21.344Z,4.46
2023-03-06T15:19:52.341Z,4.41
2023-03-06T15:22:39.089Z,4.39
2023-03-06T15:25:10.231Z,4.34
2023-03-06T15:27:38.610Z,4.30
2023-03-06T15:30:29.414Z,4.29
2023-03-06T15:33:20.138Z,4.28
2023-03-06T15:36:06.218Z,4.19
2023-03-06T15:38:38.622Z,3.94
2023-03-06T15:41:19.033Z,3.67
2023-03-06T15:43:47.207Z,3.46
2023-03-06T15:46:15.398Z,3.28
2023-03-06T15:49:00.281Z,3.14
2023-03-06T15:51:30.695Z,3.00
2023-03-06T15:54:11.214Z,2.88
2023-03-06T15:56:42.350Z,2.78
2023-03-06T15:59:22.430Z,2.70
2023-03-06T16:01:51.213Z,2.64
2023-03-06T16:04:20.063Z,2.57
2023-03-06T16:06:48.276Z,2.50
2023-03-06T16:09:16.446Z,2.40
2023-03-06T16:11:45.056Z,2.30
2023-03-06T16:14:21.197Z,2.20
2023-03-06T16:16:50.854Z,2.09
2023-03-06T16:19:29.253Z,2.03
2023-03-06T16:21:57.484Z,1.99
2023-03-06T16:24:26.776Z,1.93
2023-03-06T16:26:55.565Z,1.88
2023-03-06T16:29:25.794Z,1.83
2023-03-06T16:31:56.636Z,1.82
2023-03-06T16:34:25.426Z,1.79
2023-03-06T16:36:53.699Z,1.73
2023-03-06T16:39:23.300Z,1.71
2023-03-06T16:41:52.260Z,1.69
2023-03-06T16:44:21.465Z,1.65
2023-03-06T16:46:50.356Z,1.59
2023-03-06T16:49:22.582Z,1.58
2023-03-06T16:51:52.651Z,1.53
2023-03-06T16:54:23.475Z,1.48
2023-03-06T16:56:51.965Z,1.46
2023-03-06T16:59:20.126Z,1.41
2023-03-06T17:01:48.446Z,1.34
2023-03-06T17:04:16.677Z,1.31
2023-03-06T17:06:44.751Z,1.27
2023-03-06T17:09:14.469Z,1.22
2023-03-06T17:11:46.869Z,1.16
2023-03-06T17:14:15.206Z,1.10
2023-03-06T17:16:43.702Z,1.05
2023-03-06T17:19:14.595Z,1.02
2023-03-06T17:21:44.021Z,1.01
2023-03-06T17:24:12.196Z,0.98
2023-03-06T17:26:40.478Z,0.95
2023-03-06T17:29:09.668Z,0.94
2023-03-06T17:31:37.939Z,0.89
2023-03-06T17:34:06.418Z,0.81
2023-03-06T17:36:34.733Z,0.75
2023-03-06T17:39:03.181Z,0.70
2023-03-06T17:41:33.040Z,0.65
2023-03-06T17:44:02.080Z,0.62
2023-03-06T17:46:32.494Z,0.58
2023-03-06T17:49:00.885Z,0.56
2023-03-06T17:51:29.500Z,0.53
2023-03-06T17:53:57.657Z,0.50
2023-03-06T17:56:26.526Z,0.50
2023-03-06T17:58:55.520Z,0.48
2023-03-06T18:01:30.073Z,0.46
2023-03-06T18:03:58.208Z,0.42
2023-03-06T18:06:27.915Z,0.37
2023-03-06T18:08:56.291Z,0.36
2023-03-06T18:11:24.464Z,0.31
2023-03-06T18:13:53.040Z,0.27
2023-03-06T18:16:23.939Z,0.23
2023-03-06T18:18:53.584Z,0.21
2023-03-06T18:21:23.401Z,0.20
2023-03-06T18:23:51.568Z,0.18
2023-03-06T18:26:29.367Z,0.18
2023-03-06T18:29:01.495Z,0.19
2023-03-06T18:31:35.056Z,0.14
2023-03-06T18:34:06.654Z,0.11
2023-03-06T18:36:35.781Z,0.07
2023-03-06T18:39:06.338Z,0.04
2023-03-06T18:41:34.998Z,0.03
2023-03-06T18:44:03.876Z,0.00
2023-03-06T18:46:34.866Z,-0.02
2023-03-06T18:49:04.018Z,-0.02
2023-03-06T18:51:32.696Z,-0.00
2023-03-06T18:54:02.204Z,-0.02
2023-03-06T18:56:30.886Z,-0.06
2023-03-06T18:59:04.175Z,-0.09
2023-03-06T19:01:33.299Z,-0.15
2023-03-06T19:04:03.282Z,-0.16
2023-03-06T19:06:31.883Z,-0.19
2023-03-06T19:09:01.877Z,-0.23
2023-03-06T19:11:30.370Z,-0.29
2023-03-06T19:13:59.631Z,-0.32
2023-03-06T19:16:30.328Z,-0.35
2023-03-06T19:18:59.301Z,-0.33
2023-03-06T19:21:28.786Z,-0.36
2023-03-06T19:23:58.806Z,-0.37
2023-03-06T19:26:28.239Z,-0.37
2023-03-06T19:28:56.626Z,-0.36
2023-03-06T19:31:27.478Z,-0.36
2023-03-06T19:33:57.063Z,-0.36
2023-03-06T19:36:28.860Z,-0.30
2023-03-06T19:38:59.060Z,-0.29
2023-03-06T19:41:27.895Z,-0.31
2023-03-06T19:43:59.026Z,-0.34
2023-03-06T19:46:27.743Z,-0.37
2023-03-06T19:48:57.942Z,-0.35
2023-03-06T19:51:27.038Z,-0.34
2023-03-06T19:53:56.341Z,-0.34
2023-03-06T19:56:27.381Z,-0.33
2023-03-06T19:58:55.958Z,-0.32
2023-03-06T20:01:26.345Z,-0.32
2023-03-06T20:04:05.185Z,-0.33
2023-03-06T20:06:35.912Z,-0.32
2023-03-06T20:09:07.392Z,-0.34
2023-03-06T20:11:35.567Z,-0.34
2023-03-06T20:14:05.363Z,-0.34
2023-03-06T20:16:34.453Z,-0.37
2023-03-06T20:19:02.873Z,-0.41
2023-03-06T20:21:33.506Z,-0.39
2023-03-06T20:24:01.528Z,-0.37
2023-03-06T20:26:31.134Z,-0.37
2023-03-06T20:28:59.410Z,-0.38
2023-03-06T20:31:29.392Z,-0.38
2023-03-06T20:33:59.244Z,-0.37
2023-03-06T20:36:33.035Z,-0.39
2023-03-06T20:39:02.855Z,-0.43
2023-03-06T20:41:32.062Z,-0.44
2023-03-06T20:44:02.142Z,-0.46
2023-03-06T20:46:30.798Z,-0.47
2023-03-06T20:48:59.716Z,-0.47
2023-03-06T20:51:33.481Z,-0.49
2023-03-06T20:54:02.434Z,-0.43
2023-03-06T20:56:33.175Z,-0.42
2023-03-06T20:59:01.335Z,-0.43
2023-03-06T21:01:31.996Z,-0.43
2023-03-06T21:04:00.839Z,-0.43
2023-03-06T21:06:29.132Z,-0.44
2023-03-06T21:08:58.530Z,-0.47
2023-03-06T21:11:27.212Z,-0.48
2023-03-06T21:13:56.113Z,-0.50
2023-03-06T21:16:25.927Z,-0.52
2023-03-06T21:18:55.414Z,-0.54
2023-03-06T21:21:27.885Z,-0.55
2023-03-06T21:23:56.167Z,-0.57
2023-03-06T21:26:26.686Z,-0.57
2023-03-06T21:28:57.226Z,-0.54
2023-03-06T21:31:26.046Z,-0.53
2023-03-06T21:33:54.797Z,-0.56
2023-03-06T21:36:23.072Z,-0.56
2023-03-06T21:38:52.468Z,-0.56
2023-03-06T21:41:24.205Z,-0.59
2023-03-06T21:43:59.554Z,-0.62
2023-03-06T21:46:28.473Z,-0.64
2023-03-06T21:48:58.063Z,-0.66
2023-03-06T21:51:27.258Z,-0.68
2023-03-06T21:53:56.046Z,-0.69
2023-03-06T21:56:25.665Z,-0.72
2023-03-06T21:58:55.269Z,-0.71
2023-03-06T22:01:25.969Z,-0.70
2023-03-06T22:03:54.841Z,-0.70
2023-03-06T22:06:26.021Z,-0.68
2023-03-06T22:08:59.139Z,-0.66
2023-03-06T22:11:31.455Z,-0.65
2023-03-06T22:14:00.363Z,-0.64
2023-03-06T22:16:28.694Z,-0.64
2023-03-06T22:18:57.329Z,-0.61
2023-03-06T22:21:25.711Z,-0.58
2023-03-06T22:23:57.482Z,-0.56
2023-03-06T22:26:29.730Z,-0.56
2023-03-06T22:28:58.012Z,-0.57
2023-03-06T22:31:28.997Z,-0.53
2023-03-06T22:33:59.684Z,-0.51
2023-03-06T22:36:30.573Z,-0.51
2023-03-06T22:39:00.718Z,-0.49
2023-03-06T22:41:29.116Z,-0.47
2023-03-06T22:43:58.618Z,-0.46
2023-03-06T22:46:27.706Z,-0.43
2023-03-06T22:48:57.622Z,-0.45
2023-03-06T22:51:27.335Z,-0.45
2023-03-06T22:53:55.883Z,-0.44
2023-03-06T22:56:24.896Z,-0.45
2023-03-06T22:58:53.070Z,-0.46
2023-03-06T23:01:23.570Z,-0.47
2023-03-06T23:03:52.478Z,-0.44
2023-03-06T23:06:26.385Z,-0.41
2023-03-06T23:09:00.319Z,-0.38
2023-03-06T23:11:29.497Z,-0.35
2023-03-06T23:14:18.331Z,-0.32
2023-03-06T23:17:05.155Z,-0.29
2023-03-06T23:19:53.302Z,-0.27
2023-03-06T23:22:40.309Z,-0.26
2023-03-06T23:25:27.197Z,-0.27
2023-03-06T23:27:56.018Z,-0.28
2023-03-06T23:30:24.287Z,-0.29
2023-03-06T23:32:52.458Z,-0.29
2023-03-06T23:35:20.957Z,-0.24
2023-03-06T23:37:49.106Z,-0.22
2023-03-06T23:40:18.003Z,-0.20
2023-03-06T23:42:46.171Z,-0.19
2023-03-06T23:45:14.552Z,-0.18
2023-03-06T23:47:42.719Z,-0.17
2023-03-06T23:50:11.811Z,-0.18
2023-03-06T23:52:40.496Z,-0.20
2023-03-06T23:55:09.189Z,-0.25
2023-03-06T23:57:37.355Z,-0.29
